Idabel, OK

9:54 PM CST on November 22, 2014 (GMT -0600)
Fuller Farms | Change Station
CLOSE
Current Station
Personal Weather Station
Location: Haworth, OK
Elevation: 433 ft
Nearby Weather Stations

Elev 433 ft 33.82 °N, 94.71 °W | Updated 15 seconds ago

Rain
Rain
60.2 °F
Feels Like 60.2 °F
N
0.0
Wind Variable Wind from SSW
Gusts 0.0 mph

Today
High -- | Low -- °F
--% Chance of Precip.
Yesterday
High -- | Low -- °F
Precip. -- in
6:57 AM 5:12 PM
New Moon, 0% visible
Pressure 29.84 in
Visibility 5.0 miles
Clouds Scattered Clouds 500 ft
Scattered Clouds 1400 ft
Mostly Cloudy 3400 ft
Dew Point 59 °F
Humidity 96%
Rainfall 0.27 in
Snow Depth Not available.
UV 0 out of 12
Pollen .50 out of 12
Air Quality Not available.
Flu Activity Not available.
METAR K4O4 230335Z AUTO 13006KT 5SM SCT005 SCT014 BKN034 15/13 A2984 RMK AO2 P0001

More Conditions Fewer Conditions

Pressure 29.84 in
Visibility 5.0 miles
Clouds Scattered Clouds 500 ft
Scattered Clouds 1400 ft
Mostly Cloudy 3400 ft
Dew Point 59 °F
Humidity 96%
Rainfall 0.27 in
Snow Depth Not available.
UV 0 out of 12
Pollen .50 out of 12
Air Quality Not available.
Flu Activity Not available.
METAR K4O4 230335Z AUTO 13006KT 5SM SCT005 SCT014 BKN034 15/13 A2984 RMK AO2 P0001

More Conditions Fewer Conditions

Nowcast | as of 7:58 PM CST on November 22, 2014

Through 10 PM CST...look for light rain with embedded heavier showers...and possibly an isolated thunderstorm to continue to spread to the northeast near 30 mph across East Texas and southeast Oklahoma into southwest Arkansas and northwest Louisiana. The rain will be to the west of a Broken Bow Oklahoma to Texarkana Texas to Shreveport...Mansfield...and Natchitoches Louisiana line. Some of the heavier rainfall will affect communities from near Tyler to Rusk...Nacogdoches...and Wells Texas. Later during the evening...thunderstorms will increase and be embedded in the large area of rain spreading over the area. Rainfall amounts will range from a few one hundredths of an inch to near one quarter of an inch...and increase to heavier amounts between one quarter to one half inch late in the evening as thunderstorms expand.

×

10-Day Weather Forecast

Almanac

Astronomy

Nov. 22, 2014 Rise Set
Actual Time
Civil Twilight
Nautical Twilight
Astronomical Twilight
Moon
Length of Visible Light
Length of Day
Tomorrow will be .
, % of the Moon is Illuminated

Today's Extremes

State Highs State Lows

Community

WunderPhotos

Upload Photos

1,772,990 photos uploaded!

WunderBlogs® & News

Nearby

Air Quality

  Air Quality AQ Index Pollutant
Not available.

Snow Depth

Station Depth Elevation

Earthquake Activity

City Distance Mag. Time & Date
Minimum magnitude displayed is 2.5.

Coastal Water Temperatures

Place Temperature

Nearby Weather Stations